Time;durP1;ratioP1;P1;durP2;ratioP2;P2;SDS_P1;SDS_P2;PMS_P1;PMS_P2;Temp;Humidity;BMP_temperature;BMP_pressure;BME280_temperature;BME280_humidity;BME280_pressure;Samples;Min_cycle;Max_cycle;Signal;HPM_P1;HPM_P2
2021/01/31 00:00:50;;;;;;;41.77;20.93;;;-3.80;99.90;;;;;;4951061;28;20490;-47
2021/01/31 00:03:20;;;;;;;39.27;20.60;;;-3.90;99.90;;;;;;4952421;28;20498;-46
2021/01/31 00:05:50;;;;;;;43.40;24.10;;;-3.80;99.90;;;;;;4956126;28;20477;-47
2021/01/31 00:08:20;;;;;;;40.60;22.60;;;-3.80;99.90;;;;;;4963251;28;21059;-47
2021/01/31 00:10:49;;;;;;;36.23;20.87;;;-4.20;99.90;;;;;;4963779;28;20498;-48
2021/01/31 00:13:18;;;;;;;39.33;19.80;;;-4.20;99.90;;;;;;4961919;28;20556;-47
2021/01/31 00:15:49;;;;;;;43.57;21.90;;;-4.30;99.90;;;;;;4964482;28;20564;-47
2021/01/31 00:18:22;;;;;;;52.07;23.00;;;-4.20;99.90;;;;;;4965496;28;20575;-48
2021/01/31 00:20:52;;;;;;;57.80;23.73;;;-4.40;99.90;;;;;;4967281;28;20474;-47
2021/01/31 00:23:19;;;;;;;60.43;23.73;;;-4.40;99.90;;;;;;4967761;28;20510;-47
2021/01/31 00:25:50;;;;;;;74.93;25.60;;;-4.60;99.90;;;;;;4965996;28;20932;-47
2021/01/31 00:28:25;;;;;;;67.03;24.53;;;-4.10;99.90;;;;;;4965900;28;20517;-47
2021/01/31 00:30:54;;;;;;;71.47;27.33;;;-4.10;99.90;;;;;;4967657;28;20478;-47
2021/01/31 00:33:24;;;;;;;63.93;23.23;;;-4.00;99.90;;;;;;4966296;28;21023;-47
2021/01/31 00:35:54;;;;;;;67.00;27.03;;;-3.80;99.90;;;;;;4967043;28;20501;-47
2021/01/31 00:38:24;;;;;;;59.60;25.03;;;-4.20;99.90;;;;;;4967196;28;20496;-48
2021/01/31 00:40:52;;;;;;;48.47;24.17;;;-4.40;99.90;;;;;;4967988;28;20498;-47
2021/01/31 00:43:19;;;;;;;43.47;21.73;;;-4.00;99.90;;;;;;4967535;28;20976;-47
2021/01/31 00:45:47;;;;;;;35.47;19.80;;;-4.00;99.90;;;;;;4967676;28;20886;-47
2021/01/31 00:48:16;;;;;;;32.10;18.53;;;-4.20;99.90;;;;;;4968014;28;20481;-47
2021/01/31 00:50:43;;;;;;;36.03;17.93;;;-4.30;99.90;;;;;;4966801;28;20482;-47
2021/01/31 00:53:15;;;;;;;25.80;15.83;;;-4.40;99.90;;;;;;4966839;28;20490;-47
2021/01/31 00:55:46;;;;;;;28.90;16.87;;;-4.10;99.90;;;;;;4981830;28;21074;-46
2021/01/31 00:58:20;;;;;;;33.60;19.73;;;-4.20;99.90;;;;;;4986001;28;20499;-47
2021/01/31 01:00:49;;;;;;;26.60;16.70;;;-4.40;99.90;;;;;;4970083;28;20813;-46
2021/01/31 01:03:20;;;;;;;29.73;17.40;;;-4.30;99.90;;;;;;4970902;28;20502;-47
2021/01/31 01:05:59;;;;;;;30.20;17.07;;;-4.30;99.90;;;;;;4983951;28;21119;-47
2021/01/31 01:08:27;;;;;;;30.10;17.07;;;-4.50;99.90;;;;;;4970591;28;20694;-47
2021/01/31 01:10:54;;;;;;;25.43;14.73;;;-4.30;99.90;;;;;;4969326;28;21039;-46
2021/01/31 01:13:21;;;;;;;22.63;14.47;;;-4.00;99.90;;;;;;4970090;28;20528;-47
2021/01/31 01:15:49;;;;;;;27.87;17.57;;;-3.90;99.90;;;;;;4970456;28;20474;-47
2021/01/31 01:18:16;;;;;;;24.10;15.57;;;-4.00;99.90;;;;;;4970571;28;20521;-47
2021/01/31 01:20:45;;;;;;;22.60;13.50;;;-4.40;99.90;;;;;;4971028;28;20486;-47
2021/01/31 01:23:12;;;;;;;21.20;13.93;;;-4.50;99.90;;;;;;4970503;28;20553;-47
2021/01/31 01:25:40;;;;;;;20.77;13.50;;;-4.20;99.90;;;;;;4970577;28;20478;-47
2021/01/31 01:28:07;;;;;;;26.20;16.00;;;-4.00;99.90;;;;;;4970631;28;20556;-47
2021/01/31 01:30:34;;;;;;;24.67;15.17;;;-4.20;99.90;;;;;;4971194;28;20478;-47
2021/01/31 01:33:03;;;;;;;22.63;13.20;;;-4.50;99.90;;;;;;4970327;28;20482;-48
2021/01/31 01:35:31;;;;;;;26.33;15.43;;;-4.20;99.90;;;;;;4969679;28;20533;-47
2021/01/31 01:37:59;;;;;;;25.90;15.20;;;-4.10;99.90;;;;;;4970599;28;20554;-47
2021/01/31 01:40:30;;;;;;;25.57;16.40;;;-3.90;99.90;;;;;;4969141;28;20552;-47
2021/01/31 01:42:59;;;;;;;26.33;15.43;;;-4.00;99.90;;;;;;4970466;28;20561;-47
2021/01/31 01:45:27;;;;;;;98.43;20.20;;;-4.40;99.90;;;;;;4969559;28;20565;-48
2021/01/31 01:48:00;;;;;;;24.50;14.83;;;-4.50;99.90;;;;;;4970571;28;20485;-47
2021/01/31 01:50:37;;;;;;;30.50;18.40;;;-4.50;99.90;;;;;;4968599;28;20489;-47
2021/01/31 01:53:08;;;;;;;43.90;18.50;;;-4.40;99.90;;;;;;4951117;28;20482;-47
2021/01/31 01:55:44;;;;;;;30.70;18.83;;;-4.30;99.90;;;;;;4950626;28;20482;-47
2021/01/31 01:58:16;;;;;;;25.63;16.90;;;-4.40;99.90;;;;;;4950739;28;20485;-47
2021/01/31 02:00:46;;;;;;;24.27;16.07;;;-4.30;99.90;;;;;;4950939;28;20485;-47
2021/01/31 02:03:18;;;;;;;21.13;14.33;;;-4.70;99.90;;;;;;4957418;28;20481;-47
2021/01/31 02:05:54;;;;;;;18.57;12.30;;;-4.90;99.90;;;;;;4967697;28;21027;-47
2021/01/31 02:08:22;;;;;;;40.53;15.10;;;-4.90;99.90;;;;;;4966767;28;20709;-47
2021/01/31 02:10:50;;;;;;;19.70;14.13;;;-4.90;99.90;;;;;;4964114;28;20990;-47
2021/01/31 02:13:17;;;;;;;21.53;14.13;;;-4.80;99.90;;;;;;4969499;28;21000;-47
2021/01/31 02:15:47;;;;;;;20.47;13.57;;;-5.00;99.90;;;;;;4969051;28;20946;-46
2021/01/31 02:18:29;;;;;;;19.13;13.33;;;-5.10;99.90;;;;;;4969583;28;20994;-47
2021/01/31 02:21:52;;;;;;;33.13;15.03;;;-4.60;99.90;;;;;;4969779;28;20509;-47
2021/01/31 02:25:10;;;;;;;22.77;15.03;;;-4.70;99.90;;;;;;4974358;28;20628;-47
2021/01/31 02:28:17;;;;;;;544.13;35.60;;;-4.70;99.90;;;;;;4969804;28;20512;-47
2021/01/31 02:31:30;;;;;;;23.17;15.57;;;-4.20;99.90;;;;;;4937209;28;20480;-46
2021/01/31 02:34:07;;;;;;;22.50;15.07;;;-4.40;99.90;;;;;;4706815;28;10001340;-47
2021/01/31 02:36:44;;;;;;;19.95;14.00;;;-4.70;99.90;;;;;;1368721;28;10001929;-47
2021/01/31 02:39:25;;;;;;;17.60;13.27;;;-5.00;99.90;;;;;;4969195;28;20264;-47
2021/01/31 02:42:18;;;;;;;16.73;11.77;;;-5.20;99.90;;;;;;4969713;28;20473;-47
2021/01/31 02:44:58;;;;;;;18.40;12.00;;;-5.00;99.90;;;;;;4968692;28;20489;-47
2021/01/31 02:47:28;;;;;;;17.80;12.20;;;-4.90;99.90;;;;;;4969552;28;20981;-47
2021/01/31 02:50:06;;;;;;;21.97;14.90;;;-4.90;99.90;;;;;;4969239;28;20481;-47
2021/01/31 02:52:39;;;;;;;20.43;14.17;;;-5.00;99.90;;;;;;4969144;28;20484;-47
2021/01/31 02:55:13;;;;;;;20.00;13.83;;;-5.00;99.90;;;;;;4968836;28;20473;-47
2021/01/31 02:57:47;;;;;;;19.10;12.70;;;-4.80;99.90;;;;;;4968545;28;20497;-47
2021/01/31 03:00:19;;;;;;;20.80;14.80;;;-4.50;99.90;;;;;;4949614;28;20488;-47
2021/01/31 03:02:56;;;;;;;19.67;12.97;;;-4.60;99.90;;;;;;4963751;28;20577;-46
2021/01/31 03:05:31;;;;;;;39.30;16.20;;;-4.50;99.90;;;;;;4965811;28;20958;-47
2021/01/31 03:08:05;;;;;;;20.93;13.47;;;-4.20;99.90;;;;;;4968871;28;20832;-47
2021/01/31 03:10:40;;;;;;;23.57;16.53;;;-4.60;99.90;;;;;;4968953;28;21013;-47
2021/01/31 03:13:15;;;;;;;25.90;16.63;;;-4.90;99.90;;;;;;4968304;28;20520;-47
2021/01/31 03:15:55;;;;;;;23.57;16.00;;;-4.80;99.90;;;;;;4968480;28;20486;-47
2021/01/31 03:18:30;;;;;;;24.77;15.37;;;-5.20;99.90;;;;;;4969186;28;20899;-47
2021/01/31 03:21:05;;;;;;;21.40;14.00;;;-5.00;99.90;;;;;;4968976;28;21103;-47
2021/01/31 03:23:40;;;;;;;22.13;14.47;;;-5.00;99.90;;;;;;4968339;28;20555;-47
2021/01/31 03:26:17;;;;;;;20.07;14.00;;;-5.00;99.90;;;;;;4968297;28;20476;-47
2021/01/31 03:28:45;;;;;;;23.37;14.33;;;-4.50;99.90;;;;;;4968597;28;20544;-47
2021/01/31 03:31:18;;;;;;;26.57;16.53;;;-4.70;99.90;;;;;;4969044;28;20473;-47
2021/01/31 03:33:51;;;;;;;24.27;16.13;;;-4.60;99.90;;;;;;4967806;28;20600;-47
2021/01/31 03:36:22;;;;;;;23.00;14.67;;;-4.70;99.90;;;;;;4968594;28;20492;-47
2021/01/31 03:38:53;;;;;;;22.57;15.33;;;-4.60;99.90;;;;;;4968883;28;20502;-47
2021/01/31 03:41:24;;;;;;;21.40;14.33;;;-4.90;99.90;;;;;;4969001;28;20514;-47
2021/01/31 03:43:52;;;;;;;20.57;13.90;;;-4.80;99.90;;;;;;4967713;28;20481;-47
2021/01/31 03:46:27;;;;;;;19.47;13.50;;;-4.70;99.90;;;;;;4968282;28;20490;-47
2021/01/31 03:49:01;;;;;;;23.23;15.43;;;-4.90;99.90;;;;;;4968615;28;20848;-47
2021/01/31 03:51:31;;;;;;;18.50;12.50;;;-4.70;99.90;;;;;;4968523;28;20942;-47
2021/01/31 03:54:03;;;;;;;20.23;13.43;;;-4.90;99.90;;;;;;4967537;28;20510;-47
2021/01/31 03:56:34;;;;;;;20.17;13.57;;;-5.10;99.90;;;;;;4967834;28;20488;-46
2021/01/31 03:59:03;;;;;;;19.93;13.60;;;-5.20;99.90;;;;;;4967645;28;20486;-47
2021/01/31 04:01:34;;;;;;;22.37;13.80;;;-5.00;99.90;;;;;;4966446;28;20544;-47
2021/01/31 04:04:11;;;;;;;20.63;13.53;;;-5.00;99.90;;;;;;4965135;28;20568;-47
2021/01/31 04:06:51;;;;;;;20.53;12.40;;;-5.10;99.90;;;;;;4966430;28;20535;-47
2021/01/31 04:09:21;;;;;;;19.83;12.27;;;-5.50;99.90;;;;;;4971694;28;20477;-47
2021/01/31 04:11:48;;;;;;;20.97;12.93;;;-5.50;99.90;;;;;;4963472;28;20482;-47
2021/01/31 04:14:34;;;;;;;17.53;12.17;;;-5.70;99.90;;;;;;4948752;28;20568;-47
2021/01/31 04:17:01;;;;;;;18.10;11.20;;;-5.80;99.90;;;;;;4949460;28;21052;-46
2021/01/31 04:19:28;;;;;;;19.47;12.37;;;-5.90;99.90;;;;;;4954864;28;20531;-47
2021/01/31 04:21:57;;;;;;;18.13;12.13;;;-6.00;99.90;;;;;;4968786;28;20508;-47
2021/01/31 04:24:24;;;;;;;17.43;11.60;;;-6.00;99.90;;;;;;4967577;28;20508;-46
2021/01/31 04:26:51;;;;;;;18.57;11.73;;;-6.00;99.90;;;;;;4968445;28;20466;-48
2021/01/31 04:29:19;;;;;;;18.33;11.30;;;-5.90;99.90;;;;;;4968328;28;20500;-47
2021/01/31 04:31:46;;;;;;;17.90;10.40;;;-5.90;99.90;;;;;;4969422;28;20493;-47
2021/01/31 04:34:13;;;;;;;20.20;12.23;;;-6.10;99.90;;;;;;4971126;28;20954;-47
2021/01/31 04:36:42;;;;;;;15.93;10.57;;;-5.90;99.90;;;;;;4971768;28;20541;-47
2021/01/31 04:39:11;;;;;;;22.70;13.77;;;-5.70;99.90;;;;;;4972262;28;20538;-47
2021/01/31 04:41:42;;;;;;;21.60;13.27;;;-5.10;99.90;;;;;;4972272;28;20560;-47
2021/01/31 04:44:14;;;;;;;21.83;14.60;;;-5.30;99.90;;;;;;4971245;28;20541;-47
2021/01/31 04:46:45;;;;;;;19.33;12.83;;;-5.70;99.90;;;;;;4977602;28;20492;-47
2021/01/31 04:49:39;;;;;;;23.00;14.13;;;-5.80;99.90;;;;;;4991216;28;20801;-47
2021/01/31 04:52:23;;;;;;;21.97;14.13;;;-6.00;99.90;;;;;;4991259;28;20487;-47
2021/01/31 04:55:08;;;;;;;23.73;15.03;;;-5.90;99.90;;;;;;4974244;28;20504;-46
2021/01/31 04:57:41;;;;;;;23.73;14.40;;;-5.80;99.90;;;;;;4970080;28;20474;-46
2021/01/31 05:00:17;;;;;;;21.67;12.87;;;-5.90;99.90;;;;;;4969099;28;20478;-47
2021/01/31 05:02:51;;;;;;;26.00;16.37;;;-5.30;99.90;;;;;;4968371;28;21639;-47
2021/01/31 05:05:24;;;;;;;28.43;16.70;;;-5.20;99.90;;;;;;4970203;28;20540;-47
2021/01/31 05:07:56;;;;;;;29.27;17.30;;;-5.20;99.90;;;;;;4971444;28;20484;-48
2021/01/31 05:10:25;;;;;;;32.67;19.63;;;-4.90;99.90;;;;;;4971442;28;20549;-47
2021/01/31 05:13:22;;;;;;;31.50;18.57;;;-5.00;99.90;;;;;;4971000;28;20484;-47
2021/01/31 05:15:58;;;;;;;30.33;18.60;;;-4.80;99.90;;;;;;4970079;28;20550;-47
2021/01/31 05:18:27;;;;;;;33.83;19.40;;;-5.00;99.90;;;;;;4971217;28;20986;-47
2021/01/31 05:20:59;;;;;;;33.70;20.93;;;-4.90;99.90;;;;;;4971193;28;20485;-47
2021/01/31 05:23:39;;;;;;;27.90;17.33;;;-5.40;99.90;;;;;;4970490;28;20492;-47
2021/01/31 05:26:08;;;;;;;27.73;17.23;;;-5.60;99.90;;;;;;4970617;28;20833;-47
2021/01/31 05:28:40;;;;;;;26.10;15.33;;;-5.60;99.90;;;;;;4971078;28;20582;-47
2021/01/31 05:31:12;;;;;;;25.40;15.20;;;-5.80;99.90;;;;;;4970824;28;20474;-47
2021/01/31 05:33:51;;;;;;;24.17;14.97;;;-5.30;99.90;;;;;;4970365;28;20926;-47
2021/01/31 05:36:21;;;;;;;27.23;16.17;;;-5.40;99.90;;;;;;4970263;28;20577;-47
2021/01/31 05:38:50;;;;;;;25.63;15.93;;;-5.70;99.90;;;;;;4970483;28;20985;-47
2021/01/31 05:41:39;;;;;;;24.90;14.47;;;-5.90;99.90;;;;;;4971151;28;21040;-47
2021/01/31 05:44:19;;;;;;;23.97;14.77;;;-6.00;99.90;;;;;;4970048;28;20555;-46
2021/01/31 05:46:49;;;;;;;25.03;15.33;;;-6.10;99.90;;;;;;4970537;28;20490;-47
2021/01/31 05:49:37;;;;;;;25.33;15.03;;;-6.20;99.90;;;;;;4970475;28;20557;-47
2021/01/31 05:52:12;;;;;;;25.07;14.33;;;-6.20;99.90;;;;;;4970121;28;20516;-47
2021/01/31 05:54:41;;;;;;;26.77;16.10;;;-6.10;99.90;;;;;;4966702;28;20491;-47
2021/01/31 05:57:25;;;;;;;21.90;13.17;;;-6.10;99.90;;;;;;4969653;28;20624;-47
2021/01/31 05:59:52;;;;;;;32.70;15.03;;;-5.90;99.90;;;;;;4967635;28;20482;-47
2021/01/31 06:02:23;;;;;;;33.33;18.47;;;-5.50;99.90;;;;;;4969879;28;20477;-47
2021/01/31 06:05:14;;;;;;;27.70;15.80;;;-5.50;99.90;;;;;;4969842;28;20489;-47
2021/01/31 06:07:45;;;;;;;31.00;17.67;;;-5.50;99.90;;;;;;4969927;28;20480;-46
2021/01/31 06:10:16;;;;;;;31.07;17.53;;;-5.60;99.90;;;;;;4970623;28;20567;-47
2021/01/31 06:12:48;;;;;;;33.73;18.50;;;-5.70;99.90;;;;;;4970014;28;21085;-46
2021/01/31 06:15:26;;;;;;;29.40;16.53;;;-5.60;99.90;;;;;;4969470;28;20564;-46
2021/01/31 06:17:57;;;;;;;28.90;16.90;;;-5.60;99.90;;;;;;4970295;28;20491;-47
2021/01/31 06:20:31;;;;;;;29.13;16.30;;;-5.20;99.90;;;;;;4969858;28;20506;-47
2021/01/31 06:22:59;;;;;;;34.47;18.33;;;-4.80;99.90;;;;;;4970012;28;20568;-47
2021/01/31 06:25:39;;;;;;;33.57;17.90;;;-4.70;99.90;;;;;;4969435;28;20477;-46
2021/01/31 06:28:20;;;;;;;36.00;18.97;;;-4.90;99.90;;;;;;4970071;28;20476;-47
2021/01/31 06:30:59;;;;;;;35.47;18.33;;;-5.10;99.90;;;;;;4969645;28;20516;-47
2021/01/31 06:33:27;;;;;;;38.33;20.20;;;-5.30;99.90;;;;;;4969305;28;21071;-46
2021/01/31 06:36:09;;;;;;;36.17;18.83;;;-5.20;99.90;;;;;;4969636;28;20879;-47
2021/01/31 06:38:53;;;;;;;33.90;17.57;;;-5.10;99.90;;;;;;4969589;28;20559;-47
2021/01/31 06:41:44;;;;;;;37.27;19.53;;;-5.30;99.90;;;;;;4970033;28;20525;-48
2021/01/31 06:44:22;;;;;;;34.83;18.73;;;-5.20;99.90;;;;;;4968960;28;20475;-47
2021/01/31 06:47:05;;;;;;;105.77;21.87;;;-5.70;99.90;;;;;;4969440;28;20485;-47
2021/01/31 06:49:53;;;;;;;38.60;20.60;;;-5.00;99.90;;;;;;4969069;28;20973;-46
2021/01/31 06:52:34;;;;;;;42.63;18.90;;;-5.00;99.90;;;;;;4969048;28;20488;-47
2021/01/31 06:55:28;;;;;;;39.77;19.77;;;-5.20;99.90;;;;;;4994688;28;20559;-47
2021/01/31 06:58:22;;;;;;;44.13;19.70;;;-5.30;99.90;;;;;;4966479;28;20563;-47
2021/01/31 07:01:32;;;;;;;44.87;22.03;;;-5.40;99.90;;;;;;4962060;28;20489;-47
2021/01/31 07:04:34;;;;;;;49.13;23.43;;;-5.30;99.90;;;;;;4947886;28;20470;-47
2021/01/31 07:07:56;;;;;;;56.90;28.33;;;-5.60;99.90;;;;;;4960326;28;20554;-46
2021/01/31 07:10:43;;;;;;;53.47;25.53;;;-5.80;99.90;;;;;;4967454;28;20545;-46
2021/01/31 07:13:25;;;;;;;45.43;22.63;;;-5.90;99.90;;;;;;4967365;28;20515;-47
2021/01/31 07:16:03;;;;;;;43.30;20.73;;;-5.90;99.90;;;;;;4967547;28;20483;-47
2021/01/31 07:18:40;;;;;;;44.70;21.17;;;-5.90;99.90;;;;;;4967163;28;20485;-47
2021/01/31 07:21:16;;;;;;;39.87;20.37;;;-5.90;99.90;;;;;;4967967;28;20490;-47
2021/01/31 07:23:46;;;;;;;40.53;20.27;;;-5.90;99.90;;;;;;4967111;28;20485;-46
2021/01/31 07:26:29;;;;;;;36.33;17.53;;;-5.90;99.90;;;;;;4967584;28;20478;-47
2021/01/31 07:29:00;;;;;;;32.87;17.30;;;-5.90;99.90;;;;;;4967046;28;20512;-47
2021/01/31 07:31:44;;;;;;;32.50;17.10;;;-6.00;99.90;;;;;;4967325;28;21023;-47
2021/01/31 07:34:19;;;;;;;31.33;15.90;;;-5.90;99.90;;;;;;4950783;28;20931;-46
2021/01/31 07:37:11;;;;;;;30.23;16.43;;;-5.90;99.90;;;;;;4948296;28;20519;-46
2021/01/31 07:39:48;;;;;;;32.03;16.37;;;-5.90;99.90;;;;;;4957958;28;20890;-46
2021/01/31 07:42:18;;;;;;;34.37;18.47;;;-5.80;99.90;;;;;;4966801;28;20877;-48
2021/01/31 07:44:47;;;;;;;31.67;16.83;;;-5.80;99.90;;;;;;4965403;28;21995;-47
2021/01/31 07:47:23;;;;;;;25.43;14.40;;;-5.70;99.90;;;;;;4967779;28;20516;-47
2021/01/31 07:50:36;;;;;;;32.37;16.70;;;-5.60;99.90;;;;;;4965191;28;20490;-46
2021/01/31 07:53:04;;;;;;;28.33;15.33;;;-5.50;99.90;;;;;;4946552;28;20556;-47
2021/01/31 07:55:41;;;;;;;29.30;14.90;;;-5.50;99.90;;;;;;4966433;28;20552;-46
2021/01/31 07:58:38;;;;;;;30.83;16.17;;;-5.30;99.90;;;;;;4966844;28;20897;-46
2021/01/31 08:01:14;;;;;;;25.70;13.53;;;-5.30;99.90;;;;;;4967477;28;20530;-47
2021/01/31 08:03:43;;;;;;;27.70;15.40;;;-5.30;99.90;;;;;;4966482;28;20481;-47
2021/01/31 08:06:41;;;;;;;26.57;14.20;;;-5.30;99.90;;;;;;4967682;28;20484;-47
2021/01/31 08:09:09;;;;;;;23.20;12.37;;;-5.30;99.90;;;;;;4970700;28;20516;-47
2021/01/31 08:11:57;;;;;;;25.30;14.07;;;-5.20;99.90;;;;;;4971345;28;20916;-46
2021/01/31 08:15:09;;;;;;;26.70;14.03;;;-5.20;99.90;;;;;;4970428;28;20519;-47
2021/01/31 08:18:15;;;;;;;22.83;13.80;;;-5.20;99.90;;;;;;4970643;28;20528;-47
2021/01/31 08:20:52;;;;;;;26.90;13.60;;;-5.00;99.90;;;;;;4969367;28;20841;-46
2021/01/31 08:23:53;;;;;;;22.80;14.00;;;-5.00;99.90;;;;;;4960864;28;20570;-47
2021/01/31 08:26:45;;;;;;;23.30;13.03;;;-5.00;99.90;;;;;;4969377;28;20928;-47
2021/01/31 08:29:33;;;;;;;23.77;14.50;;;-4.90;99.90;;;;;;4966930;28;20539;-47
2021/01/31 08:32:14;;;;;;;23.73;13.43;;;-4.90;99.90;;;;;;4970263;28;20647;-47
2021/01/31 08:35:26;;;;;;;22.97;13.20;;;-4.80;99.90;;;;;;4969082;28;20475;-47
2021/01/31 08:38:14;;;;;;;25.87;13.73;;;-4.90;99.90;;;;;;4969533;28;20936;-47
2021/01/31 08:41:10;;;;;;;26.00;14.17;;;-4.90;99.90;;;;;;4968171;28;20571;-47
2021/01/31 08:43:41;;;;;;;23.30;13.97;;;-4.80;99.90;;;;;;4966976;28;20547;-47
2021/01/31 08:46:14;;;;;;;23.83;13.10;;;-4.80;99.90;;;;;;4969842;28;20485;-46
2021/01/31 08:48:43;;;;;;;23.40;13.83;;;-4.80;99.90;;;;;;4969396;28;20519;-46
2021/01/31 08:51:17;;;;;;;26.27;15.53;;;-4.70;99.90;;;;;;4966637;28;21013;-47
2021/01/31 08:54:02;;;;;;;30.23;16.77;;;-4.30;99.90;;;;;;4968179;28;20842;-47
2021/01/31 08:56:34;;;;;;;30.67;15.43;;;-4.30;99.90;;;;;;4968320;28;20534;-45
2021/01/31 08:59:03;;;;;;;31.47;17.20;;;-4.30;99.90;;;;;;4969764;28;20495;-46
2021/01/31 09:01:38;;;;;;;27.23;16.10;;;-4.40;99.90;;;;;;4969625;28;20477;-46
2021/01/31 09:04:09;;;;;;;24.53;15.17;;;-4.40;99.90;;;;;;4967164;28;20922;-45
2021/01/31 09:06:39;;;;;;;25.13;14.57;;;-4.40;99.90;;;;;;4969088;28;20485;-46
2021/01/31 09:09:14;;;;;;;26.87;15.20;;;-4.40;99.90;;;;;;4967626;28;20485;-46
2021/01/31 09:11:42;;;;;;;25.17;15.03;;;-4.40;99.90;;;;;;4970039;28;20487;-47
2021/01/31 09:14:18;;;;;;;23.50;14.13;;;-4.30;99.90;;;;;;4969633;28;20496;-47
2021/01/31 09:16:46;;;;;;;21.13;13.27;;;-4.30;99.90;;;;;;4969568;28;20487;-46
2021/01/31 09:19:20;;;;;;;22.67;12.37;;;-4.30;99.90;;;;;;4969341;28;20466;-47
2021/01/31 09:21:50;;;;;;;23.40;13.83;;;-4.20;99.90;;;;;;4969707;28;20661;-46
2021/01/31 09:24:21;;;;;;;23.20;14.80;;;-4.10;99.90;;;;;;4961427;28;21023;-46
2021/01/31 09:26:50;;;;;;;25.60;15.20;;;-3.80;99.90;;;;;;4969630;28;21039;-46
2021/01/31 09:29:22;;;;;;;22.70;14.07;;;-3.60;99.90;;;;;;4969733;28;20540;-47
2021/01/31 09:32:09;;;;;;;25.30;14.90;;;-3.50;99.90;;;;;;4969514;28;20497;-47
2021/01/31 09:34:39;;;;;;;22.97;14.77;;;-3.40;99.90;;;;;;4969386;28;20484;-47
2021/01/31 09:37:10;;;;;;;23.63;14.30;;;-3.50;99.90;;;;;;4970019;28;20479;-47
2021/01/31 09:39:40;;;;;;;23.10;14.40;;;-3.50;99.90;;;;;;4969365;28;20484;-48
2021/01/31 09:42:07;;;;;;;22.37;14.13;;;-3.50;99.90;;;;;;4969962;28;20481;-47
2021/01/31 09:44:37;;;;;;;22.17;13.47;;;-3.30;99.90;;;;;;4967453;28;20490;-46
2021/01/31 09:47:05;;;;;;;24.60;14.77;;;-3.20;99.90;;;;;;4970280;28;20537;-47
2021/01/31 09:49:33;;;;;;;27.07;16.73;;;-3.20;99.90;;;;;;4968380;28;20553;-47
2021/01/31 09:52:05;;;;;;;26.10;15.63;;;-3.00;99.90;;;;;;4970572;28;20510;-47
2021/01/31 09:54:35;;;;;;;27.50;16.37;;;-2.80;99.90;;;;;;4969832;28;21032;-47
2021/01/31 09:57:07;;;;;;;25.63;15.33;;;-2.80;99.90;;;;;;4970258;28;20478;-46
2021/01/31 09:59:36;;;;;;;29.97;17.40;;;-2.50;99.90;;;;;;4970305;28;20553;-47
2021/01/31 10:02:08;;;;;;;25.27;17.40;;;-2.50;99.90;;;;;;4970952;28;20486;-47
2021/01/31 10:04:37;;;;;;;22.87;15.47;;;-2.50;99.90;;;;;;4969877;28;20477;-47
2021/01/31 10:07:11;;;;;;;26.43;16.63;;;-2.50;99.90;;;;;;4969930;28;20533;-47
2021/01/31 10:09:41;;;;;;;25.47;15.43;;;-2.60;99.90;;;;;;4969362;28;20552;-46
2021/01/31 10:12:25;;;;;;;25.00;15.80;;;-2.70;99.90;;;;;;4969729;28;20505;-47
2021/01/31 10:14:56;;;;;;;23.47;14.80;;;-2.60;99.90;;;;;;4966855;28;20576;-46
2021/01/31 10:17:37;;;;;;;25.30;15.67;;;-2.40;99.90;;;;;;4968444;28;20572;-47
2021/01/31 10:20:28;;;;;;;23.83;15.83;;;-2.30;99.90;;;;;;4970033;28;20513;-47
2021/01/31 10:23:02;;;;;;;27.10;16.20;;;-2.30;99.90;;;;;;4969942;28;20571;-47
2021/01/31 10:25:30;;;;;;;24.10;15.63;;;-2.20;99.90;;;;;;4969305;28;20541;-48
2021/01/31 10:28:00;;;;;;;24.03;15.17;;;-2.10;99.90;;;;;;4970029;28;20891;-47
2021/01/31 10:30:39;;;;;;;25.90;16.53;;;-2.10;99.90;;;;;;4965882;28;20474;-47
2021/01/31 10:33:08;;;;;;;23.77;15.13;;;-2.10;99.90;;;;;;4967107;28;20912;-47
2021/01/31 10:35:38;;;;;;;24.13;15.17;;;-2.00;99.90;;;;;;4968474;28;20478;-47
2021/01/31 10:38:30;;;;;;;25.33;16.20;;;-2.00;99.90;;;;;;4969917;28;20982;-47
2021/01/31 10:41:00;;;;;;;26.43;15.97;;;-2.00;99.90;;;;;;4969075;28;20872;-47
2021/01/31 10:43:28;;;;;;;23.40;15.60;;;-2.00;99.90;;;;;;4968083;28;20552;-47
2021/01/31 10:45:56;;;;;;;25.93;15.63;;;-1.90;99.90;;;;;;4966425;28;20533;-47
2021/01/31 10:48:23;;;;;;;22.20;12.90;;;-1.90;99.90;;;;;;4967885;28;20502;-46
2021/01/31 10:50:50;;;;;;;27.27;17.53;;;-1.60;99.90;;;;;;4969018;28;20482;-47
2021/01/31 10:53:17;;;;;;;24.47;16.13;;;-1.20;99.90;;;;;;4968224;28;21009;-47
2021/01/31 10:55:45;;;;;;;26.90;16.87;;;-1.50;99.90;;;;;;4968523;28;20505;-46
2021/01/31 10:58:12;;;;;;;24.47;14.83;;;-1.40;99.90;;;;;;4969023;28;20506;-46
2021/01/31 11:00:41;;;;;;;23.27;16.07;;;-1.50;99.90;;;;;;4968108;28;20884;-46
2021/01/31 11:03:09;;;;;;;23.73;14.33;;;-1.20;99.90;;;;;;4968306;28;20545;-46
2021/01/31 11:05:36;;;;;;;22.67;14.13;;;-1.30;99.90;;;;;;4968655;28;20478;-45
2021/01/31 11:08:04;;;;;;;19.43;12.77;;;-1.30;99.90;;;;;;4968986;28;21065;-46
2021/01/31 11:10:32;;;;;;;20.63;13.90;;;-1.20;99.90;;;;;;4968345;28;20558;-46
2021/01/31 11:12:59;;;;;;;18.17;13.30;;;-1.20;99.90;;;;;;4968729;28;20505;-47
2021/01/31 11:15:27;;;;;;;20.80;14.13;;;-1.10;99.90;;;;;;4968290;28;20486;-46
2021/01/31 11:17:56;;;;;;;20.30;13.50;;;-1.00;99.90;;;;;;4966678;28;21001;-46
2021/01/31 11:20:23;;;;;;;22.40;14.40;;;-0.90;99.90;;;;;;4968335;28;21049;-47
2021/01/31 11:22:50;;;;;;;21.87;14.07;;;-0.80;99.90;;;;;;4968552;28;20902;-46
2021/01/31 11:25:18;;;;;;;21.13;14.33;;;-0.70;99.90;;;;;;4967532;28;20566;-48
2021/01/31 11:27:45;;;;;;;20.33;14.13;;;-0.80;99.90;;;;;;4969149;28;20814;-46
2021/01/31 11:30:14;;;;;;;20.23;13.80;;;-0.70;99.90;;;;;;4968582;28;20474;-46
2021/01/31 11:32:41;;;;;;;21.37;14.40;;;-0.70;99.90;;;;;;4967212;28;20526;-46
2021/01/31 11:35:10;;;;;;;25.60;19.33;;;-0.60;99.90;;;;;;4966385;28;20446;-46
2021/01/31 11:37:38;;;;;;;23.30;15.80;;;-0.50;99.90;;;;;;4969290;28;20230;-47
2021/01/31 11:40:08;;;;;;;24.30;15.00;;;-0.40;99.90;;;;;;4967225;28;20541;-46
2021/01/31 11:42:35;;;;;;;22.03;13.43;;;-0.40;99.90;;;;;;4968044;28;20506;-46
2021/01/31 11:45:06;;;;;;;19.83;13.97;;;-0.30;99.90;;;;;;4966167;28;20486;-46
2021/01/31 11:47:34;;;;;;;21.60;13.67;;;-0.30;99.90;;;;;;4967427;28;20482;-47
2021/01/31 11:50:05;;;;;;;20.97;14.20;;;-0.20;99.90;;;;;;4968275;28;20961;-46
2021/01/31 11:52:33;;;;;;;19.73;14.17;;;-0.20;99.90;;;;;;4968377;28;20614;-47
2021/01/31 11:55:01;;;;;;;21.03;14.13;;;-0.10;99.90;;;;;;4968050;28;20473;-46
2021/01/31 11:57:28;;;;;;;20.70;13.77;;;-0.10;99.90;;;;;;4968241;28;20502;-46
2021/01/31 11:59:55;;;;;;;23.77;14.77;;;0.00;99.90;;;;;;4963981;28;20574;-46
2021/01/31 12:02:23;;;;;;;19.47;13.53;;;0.00;99.90;;;;;;4964730;28;21266;-47
2021/01/31 12:04:50;;;;;;;21.83;14.57;;;0.10;99.90;;;;;;4967071;28;20488;-47
2021/01/31 12:07:17;;;;;;;20.83;14.23;;;0.10;99.90;;;;;;4967174;28;20564;-46
2021/01/31 12:09:46;;;;;;;20.47;14.13;;;0.10;99.90;;;;;;4966501;28;20569;-46
2021/01/31 12:12:13;;;;;;;21.77;14.00;;;0.10;99.90;;;;;;4966835;28;20473;-46
2021/01/31 12:14:41;;;;;;;21.33;14.47;;;0.10;99.90;;;;;;4966153;28;20477;-46
2021/01/31 12:17:09;;;;;;;22.03;14.30;;;0.10;99.90;;;;;;4967171;28;20827;-47
2021/01/31 12:19:37;;;;;;;22.50;14.20;;;0.00;99.90;;;;;;4967079;28;20549;-46
2021/01/31 12:22:21;;;;;;;21.10;12.53;;;0.10;99.90;;;;;;4966498;28;20486;-47
2021/01/31 12:24:50;;;;;;;20.97;13.57;;;0.70;99.90;;;;;;4966089;28;20717;-46
2021/01/31 12:27:20;;;;;;;18.97;13.70;;;0.60;99.90;;;;;;4966702;28;20528;-47
2021/01/31 12:29:49;;;;;;;19.60;13.17;;;0.50;99.90;;;;;;4963426;28;20482;-47
2021/01/31 12:32:17;;;;;;;22.40;14.87;;;0.50;99.90;;;;;;4966965;28;20498;-47
2021/01/31 12:34:45;;;;;;;24.03;14.93;;;0.40;99.90;;;;;;4966269;28;20566;-47
2021/01/31 12:37:13;;;;;;;21.40;14.80;;;0.40;99.90;;;;;;4967485;28;20473;-46
2021/01/31 12:39:40;;;;;;;22.47;15.57;;;0.50;99.90;;;;;;4965199;28;20512;-47
2021/01/31 12:42:09;;;;;;;23.33;16.13;;;0.40;99.90;;;;;;4965377;28;21080;-48
2021/01/31 12:44:37;;;;;;;21.57;15.40;;;0.40;99.90;;;;;;4967425;28;20480;-47
2021/01/31 12:47:04;;;;;;;24.03;15.90;;;0.40;99.90;;;;;;4968106;28;21012;-47
2021/01/31 12:49:32;;;;;;;20.30;14.73;;;0.40;99.90;;;;;;4967836;28;20466;-47
2021/01/31 12:51:59;;;;;;;21.80;15.13;;;0.40;99.90;;;;;;4967754;28;20856;-47
2021/01/31 12:54:26;;;;;;;21.00;15.33;;;0.50;99.90;;;;;;4970764;28;20908;-46
2021/01/31 12:56:54;;;;;;;20.27;15.57;;;0.50;99.90;;;;;;4971981;28;20993;-46
2021/01/31 12:59:22;;;;;;;22.67;15.60;;;0.50;99.90;;;;;;4971301;28;20545;-47
2021/01/31 13:01:50;;;;;;;19.13;14.30;;;0.50;99.90;;;;;;4971197;28;20874;-46
2021/01/31 13:04:17;;;;;;;22.53;15.83;;;0.50;99.90;;;;;;4970198;28;20482;-46